Time;durP1;ratioP1;P1;durP2;ratioP2;P2;SDS_P1;SDS_P2;PMS_P1;PMS_P2;Temp;Humidity;BMP_temperature;BMP_pressure;BME280_temperature;BME280_humidity;BME280_pressure;Samples;Min_cycle;Max_cycle;Signal;HPM_P1;HPM_P2
2021/11/04 06:50:15;;;;;;;17.00;6.38;;;17.20;70.50;;;;;;4790525;30;20128;-72
2021/11/04 06:52:49;;;;;;;12.88;5.97;;;17.20;70.20;;;;;;4792844;30;20417;-72
2021/11/04 06:55:15;;;;;;;13.73;7.90;;;17.30;70.20;;;;;;4791970;30;20059;-72
2021/11/04 06:57:42;;;;;;;13.65;6.97;;;17.40;70.10;;;;;;4792045;30;20055;-71
2021/11/04 07:00:11;;;;;;;14.30;7.95;;;17.40;69.70;;;;;;4792176;30;20128;-73
2021/11/04 07:02:41;;;;;;;12.82;6.30;;;17.50;69.90;;;;;;4791413;30;20340;-75
2021/11/04 07:05:08;;;;;;;13.55;6.38;;;17.60;69.70;;;;;;4791447;30;20420;-71
2021/11/04 07:07:47;;;;;;;12.73;6.30;;;17.70;69.50;;;;;;4792852;30;20173;-73
2021/11/04 07:10:15;;;;;;;14.55;6.57;;;17.70;69.50;;;;;;4792864;30;20051;-72
2021/11/04 07:12:44;;;;;;;15.35;5.85;;;17.90;69.00;;;;;;4791828;30;20087;-73
2021/11/04 07:15:10;;;;;;;12.45;5.60;;;18.00;68.30;;;;;;4791495;30;20177;-74
2021/11/04 07:17:40;;;;;;;12.43;5.50;;;18.20;68.00;;;;;;4792712;30;20146;-73
2021/11/04 07:20:06;;;;;;;10.10;5.65;;;18.20;67.10;;;;;;4792824;30;20047;-73
2021/11/04 07:22:40;;;;;;;14.45;5.40;;;18.30;67.30;;;;;;4792249;30;20527;-73
2021/11/04 07:25:06;;;;;;;10.63;5.22;;;18.30;67.10;;;;;;4792064;30;20456;-73
2021/11/04 07:27:35;;;;;;;7.88;4.60;;;18.30;67.00;;;;;;4792416;30;20058;-74
2021/11/04 07:30:08;;;;;;;8.63;4.10;;;18.30;66.70;;;;;;4792359;30;20055;-72
2021/11/04 07:32:34;;;;;;;16.13;10.02;;;18.40;66.70;;;;;;4761622;30;20062;-73
2021/11/04 07:35:01;;;;;;;11.60;8.52;;;17.90;60.60;;;;;;4791933;30;20062;-75
2021/11/04 07:37:31;;;;;;;12.38;7.13;;;17.40;61.60;;;;;;4791177;29;20128;-72
2021/11/04 07:39:57;;;;;;;12.95;6.07;;;17.50;66.30;;;;;;4792389;30;20360;-73
2021/11/04 07:42:23;;;;;;;12.98;6.95;;;17.60;67.00;;;;;;4792153;30;20062;-72
2021/11/04 07:44:49;;;;;;;11.82;6.13;;;17.70;66.90;;;;;;4792158;30;20078;-73
2021/11/04 07:47:16;;;;;;;11.25;6.00;;;17.80;66.70;;;;;;4792127;30;20130;-72
2021/11/04 07:49:42;;;;;;;9.68;5.25;;;17.90;67.20;;;;;;4791709;30;20071;-72
2021/11/04 07:52:08;;;;;;;9.85;5.40;;;18.00;67.00;;;;;;4791622;30;20138;-72
2021/11/04 07:54:34;;;;;;;8.65;5.55;;;18.00;67.00;;;;;;4791062;30;20486;-72
2021/11/04 07:57:01;;;;;;;7.68;5.13;;;18.10;67.30;;;;;;4791208;30;20071;-73
2021/11/04 07:59:30;;;;;;;14.35;5.82;;;18.10;66.90;;;;;;4791734;30;20124;-72
2021/11/04 08:02:03;;;;;;;10.02;5.68;;;18.20;67.10;;;;;;4790810;29;20507;-72
2021/11/04 08:04:29;;;;;;;11.43;5.53;;;18.30;67.30;;;;;;4791595;30;20055;-71
2021/11/04 08:06:56;;;;;;;11.23;6.07;;;18.30;67.20;;;;;;4791435;30;20499;-73
2021/11/04 08:09:21;;;;;;;9.45;4.57;;;18.30;66.70;;;;;;4791728;30;20055;-77
2021/11/04 08:11:47;;;;;;;10.68;5.75;;;18.30;66.80;;;;;;4791273;30;20139;-74
2021/11/04 08:14:13;;;;;;;15.45;12.13;;;18.30;66.40;;;;;;4790468;29;20051;-72
2021/11/04 08:16:39;;;;;;;16.55;9.05;;;17.40;58.00;;;;;;4791815;30;20055;-72
2021/11/04 08:19:05;;;;;;;6.90;5.78;;;16.30;63.20;;;;;;4791320;30;20524;-72
2021/11/04 08:21:30;;;;;;;9.70;5.53;;;16.80;67.70;;;;;;4791288;30;20151;-72
2021/11/04 08:23:56;;;;;;;7.38;5.55;;;17.10;67.90;;;;;;4790510;30;20062;-72
2021/11/04 08:26:22;;;;;;;8.40;5.35;;;17.30;67.50;;;;;;4791457;30;20051;-73
2021/11/04 08:28:48;;;;;;;5.85;4.68;;;17.60;67.00;;;;;;4791202;30;20455;-74
2021/11/04 08:31:14;;;;;;;9.48;4.93;;;17.80;66.70;;;;;;4791812;30;20131;-73
2021/11/04 08:33:39;;;;;;;5.22;4.18;;;17.90;66.40;;;;;;4791020;30;20136;-72
2021/11/04 08:36:05;;;;;;;6.75;4.20;;;18.00;65.90;;;;;;4806329;29;20054;-72
2021/11/04 08:38:32;;;;;;;7.22;4.38;;;18.10;65.60;;;;;;4809587;29;20465;-72
2021/11/04 08:40:58;;;;;;;4.88;3.83;;;18.10;65.50;;;;;;4809264;29;20470;-72
2021/11/04 08:43:24;;;;;;;7.75;4.07;;;18.20;66.00;;;;;;4799027;29;20501;-72
2021/11/04 08:45:50;;;;;;;5.03;3.50;;;18.30;65.40;;;;;;4790884;30;20055;-72
2021/11/04 08:48:18;;;;;;;5.28;4.10;;;18.30;65.30;;;;;;4788892;30;20193;-73
2021/11/04 08:50:44;;;;;;;9.15;7.57;;;18.30;65.20;;;;;;4773136;30;20429;-72
2021/11/04 08:53:11;;;;;;;9.98;8.40;;;18.30;63.50;;;;;;4772846;30;20068;-73
2021/11/04 08:55:37;;;;;;;9.05;7.25;;;18.30;61.90;;;;;;4773030;30;20056;-72
2021/11/04 08:58:03;;;;;;;10.20;6.38;;;18.20;61.80;;;;;;4772959;30;20371;-72
2021/11/04 09:00:29;;;;;;;9.40;6.03;;;18.20;62.00;;;;;;4773157;30;20044;-72
2021/11/04 09:02:55;;;;;;;6.07;4.78;;;18.30;62.10;;;;;;4770143;30;20118;-71
2021/11/04 09:05:21;;;;;;;7.65;4.32;;;18.30;62.10;;;;;;4772940;30;20099;-72
2021/11/04 09:07:47;;;;;;;8.60;5.20;;;18.30;62.30;;;;;;4773224;30;20071;-72
2021/11/04 09:10:15;;;;;;;5.20;4.38;;;18.20;62.20;;;;;;4772627;30;20048;-71
2021/11/04 09:12:41;;;;;;;4.75;4.20;;;18.20;62.20;;;;;;4772151;30;20055;-72
2021/11/04 09:15:09;;;;;;;6.35;4.05;;;18.20;62.40;;;;;;4772926;30;20055;-72
2021/11/04 09:17:35;;;;;;;7.72;4.35;;;18.10;62.50;;;;;;4773200;30;20052;-72
2021/11/04 09:20:01;;;;;;;4.47;3.90;;;18.10;62.80;;;;;;4772406;30;20460;-71
2021/11/04 09:22:27;;;;;;;5.53;4.07;;;18.00;63.00;;;;;;4772006;30;20074;-72
2021/11/04 09:24:53;;;;;;;6.32;4.32;;;18.00;63.00;;;;;;4771017;30;20051;-71
2021/11/04 09:27:19;;;;;;;5.43;4.03;;;17.90;63.20;;;;;;4772671;30;20501;-71
2021/11/04 09:29:46;;;;;;;5.57;3.85;;;17.90;63.40;;;;;;4772748;30;20134;-71
2021/11/04 09:32:12;;;;;;;4.00;3.53;;;17.80;63.70;;;;;;4772757;30;20051;-72
2021/11/04 09:34:39;;;;;;;4.10;3.65;;;17.70;63.60;;;;;;4772137;30;20071;-72
2021/11/04 09:37:09;;;;;;;4.38;3.42;;;17.70;63.70;;;;;;4772419;30;20052;-72
2021/11/04 09:39:36;;;;;;;4.30;3.88;;;17.70;64.00;;;;;;4772438;30;20122;-72
2021/11/04 09:42:06;;;;;;;4.75;4.25;;;17.60;64.20;;;;;;4772991;30;20051;-71
2021/11/04 09:44:33;;;;;;;5.75;4.10;;;17.50;64.00;;;;;;4770228;30;20056;-73
2021/11/04 09:46:59;;;;;;;3.47;2.97;;;17.50;64.20;;;;;;4772176;30;20055;-71
2021/11/04 09:49:29;;;;;;;5.88;3.22;;;17.50;64.80;;;;;;4782936;30;20070;-71
2021/11/04 09:51:55;;;;;;;6.03;3.55;;;17.40;64.90;;;;;;4790102;30;20218;-70
2021/11/04 09:54:22;;;;;;;7.93;4.30;;;17.40;64.90;;;;;;4783828;30;20082;-71
2021/11/04 09:56:48;;;;;;;5.95;3.90;;;17.40;64.80;;;;;;4790121;30;20051;-71
2021/11/04 09:59:14;;;;;;;3.97;3.17;;;17.40;64.80;;;;;;4773975;30;20055;-71
2021/11/04 10:01:48;;;;;;;6.68;3.80;;;17.40;65.00;;;;;;4789136;30;20055;-71
2021/11/04 10:04:14;;;;;;;;;;;17.30;65.30;;;;;;4790152;30;20058;-72
2021/11/04 10:06:40;;;;;;;11.52;4.18;;;17.30;65.20;;;;;;4790200;30;19929;-71
2021/11/04 10:09:12;;;;;;;7.53;4.60;;;17.00;63.10;;;;;;4790146;30;20062;-74
2021/11/04 10:11:42;;;;;;;7.43;4.35;;;16.90;65.50;;;;;;4788771;30;20055;-72
2021/11/04 10:14:14;;;;;;;7.75;4.32;;;17.00;65.80;;;;;;4789381;30;20398;-71
2021/11/04 10:16:41;;;;;;;7.47;4.38;;;17.00;65.70;;;;;;4788649;29;20444;-72
2021/11/04 10:19:09;;;;;;;8.75;4.30;;;17.10;65.60;;;;;;4798417;29;20051;-78
2021/11/04 10:21:37;;;;;;;11.18;4.38;;;17.10;65.00;;;;;;4796603;29;20110;-72
2021/11/04 10:24:04;;;;;;;11.07;4.05;;;16.60;65.00;;;;;;4808048;29;20047;-73
2021/11/04 10:26:35;;;;;;;9.57;5.25;;;16.70;66.10;;;;;;4807541;29;20065;-73
2021/11/04 10:29:04;;;;;;;9.32;4.93;;;16.80;66.30;;;;;;4807674;29;20137;-73
2021/11/04 10:31:43;;;;;;;11.27;5.50;;;16.80;66.10;;;;;;4807483;29;20145;-72
2021/11/04 10:34:29;;;;;;;9.82;6.43;;;16.90;65.60;;;;;;4804004;29;20058;-73
2021/11/04 10:37:19;;;;;;;12.73;6.43;;;16.90;65.30;;;;;;4789375;30;20062;-75
2021/11/04 10:39:45;;;;;;;9.15;5.80;;;17.00;64.80;;;;;;4789798;30;20359;-72
2021/11/04 10:42:11;;;;;;;14.10;6.68;;;17.00;64.90;;;;;;4789221;30;20094;-72
2021/11/04 10:44:37;;;;;;;8.43;5.05;;;17.00;64.70;;;;;;4781092;30;20048;-71
2021/11/04 10:47:03;;;;;;;9.02;4.47;;;17.00;64.80;;;;;;4802934;29;20078;-73
2021/11/04 10:49:47;;;;;;;6.15;4.32;;;16.90;64.90;;;;;;4807785;29;20420;-72
2021/11/04 10:52:14;;;;;;;7.22;3.88;;;16.90;65.90;;;;;;4807377;29;20457;-72
2021/11/04 10:54:50;;;;;;;7.15;4.28;;;17.00;65.40;;;;;;4807350;29;20051;-74
2021/11/04 10:57:38;;;;;;;12.40;4.20;;;17.00;65.30;;;;;;4791438;29;20092;-73
2021/11/04 11:00:21;;;;;;;7.47;3.55;;;17.00;65.30;;;;;;4807459;29;20055;-75
2021/11/04 11:03:04;;;;;;;10.05;3.80;;;17.10;65.40;;;;;;4801324;29;20059;-74
2021/11/04 11:05:32;;;;;;;9.40;3.15;;;17.10;65.40;;;;;;4789267;30;20106;-73
2021/11/04 11:07:58;;;;;;;4.53;2.67;;;17.10;65.50;;;;;;4773604;30;20066;-74
2021/11/04 11:10:24;;;;;;;6.25;2.63;;;17.10;65.50;;;;;;4788930;30;20055;-74
2021/11/04 11:12:50;;;;;;;6.65;2.60;;;17.10;65.60;;;;;;4792045;29;20494;-74
2021/11/04 11:15:16;;;;;;;5.45;2.70;;;17.10;65.70;;;;;;4792547;30;20051;-73
2021/11/04 11:17:43;;;;;;;9.50;3.08;;;17.10;65.70;;;;;;4792487;30;20052;-75
2021/11/04 11:20:10;;;;;;;6.97;2.50;;;17.10;65.80;;;;;;4792455;30;20066;-74
2021/11/04 11:22:40;;;;;;;10.27;2.45;;;17.10;65.80;;;;;;4792027;30;20047;-74
2021/11/04 11:25:06;;;;;;;5.22;2.35;;;17.10;65.80;;;;;;4792180;30;20138;-74
2021/11/04 11:27:32;;;;;;;5.00;2.00;;;17.10;66.00;;;;;;4776581;30;20082;-73
2021/11/04 11:29:57;;;;;;;6.85;2.17;;;17.00;66.00;;;;;;4792265;30;20193;-73
2021/11/04 11:32:28;;;;;;;7.07;2.00;;;17.00;66.00;;;;;;4798967;29;20131;-73
2021/11/04 11:35:22;;;;;;;4.47;2.10;;;17.00;66.10;;;;;;4808954;29;20058;-74
2021/11/04 11:38:01;;;;;;;4.38;1.95;;;17.00;66.20;;;;;;4792251;30;20061;-76
2021/11/04 11:40:29;;;;;;;4.03;1.52;;;17.00;66.30;;;;;;4792112;30;20066;-74
2021/11/04 11:42:56;;;;;;;4.88;1.65;;;17.00;66.40;;;;;;4791868;30;20058;-73
2021/11/04 11:45:21;;;;;;;4.05;2.00;;;17.00;66.50;;;;;;4792157;30;20138;-74
2021/11/04 11:47:48;;;;;;;4.95;1.75;;;16.90;66.50;;;;;;4791788;30;20446;-75
2021/11/04 11:50:41;;;;;;;5.00;1.65;;;16.90;66.70;;;;;;4775337;30;20067;-74
2021/11/04 11:53:34;;;;;;;4.10;1.55;;;16.90;66.50;;;;;;4756363;30;20052;-74
2021/11/04 11:56:02;;;;;;;5.38;1.98;;;16.90;66.60;;;;;;4774007;30;20467;-73
2021/11/04 11:58:36;;;;;;;8.18;5.82;;;16.90;66.80;;;;;;4774232;30;20117;-73
2021/11/04 12:01:09;;;;;;;7.65;6.70;;;16.90;66.70;;;;;;4774210;30;20054;-73
2021/11/04 12:03:36;;;;;;;11.43;7.30;;;17.00;64.90;;;;;;4766787;30;20055;-73
2021/11/04 12:06:15;;;;;;;12.38;7.43;;;17.00;63.60;;;;;;4774114;30;20051;-73
2021/11/04 12:08:59;;;;;;;12.13;6.60;;;17.00;62.70;;;;;;4773790;30;20160;-72
2021/11/04 12:11:34;;;;;;;9.18;6.30;;;17.00;62.10;;;;;;4773535;30;20055;-73
2021/11/04 12:14:18;;;;;;;10.73;7.32;;;17.00;62.10;;;;;;4767597;30;20121;-74
2021/11/04 12:17:02;;;;;;;8.88;6.00;;;17.00;61.80;;;;;;4773675;30;20055;-73
2021/11/04 12:19:36;;;;;;;6.70;5.65;;;17.00;61.50;;;;;;4773189;30;20502;-74
2021/11/04 12:22:02;;;;;;;8.63;6.63;;;17.00;61.60;;;;;;4773300;30;20056;-72
2021/11/04 12:24:28;;;;;;;8.80;6.47;;;16.90;61.50;;;;;;4773333;30;20095;-73
2021/11/04 12:26:54;;;;;;;9.35;5.78;;;17.00;61.50;;;;;;4773572;30;20097;-72
2021/11/04 12:29:24;;;;;;;7.35;5.15;;;17.00;61.60;;;;;;4773517;30;20055;-72
2021/11/04 12:31:50;;;;;;;9.13;5.10;;;17.00;61.80;;;;;;4773011;30;20059;-75
2021/11/04 12:34:34;;;;;;;7.95;5.00;;;16.90;62.00;;;;;;4773245;30;20537;-73
2021/11/04 12:37:13;;;;;;;10.65;4.78;;;16.90;62.40;;;;;;4773129;30;20129;-72
2021/11/04 12:39:46;;;;;;;5.70;3.92;;;16.90;62.60;;;;;;4773008;30;20064;-73
2021/11/04 12:42:15;;;;;;;;;;;16.90;62.90;;;;;;4769480;30;20463;-73
2021/11/04 12:44:41;;;;;;;7.00;3.90;;;16.90;63.10;;;;;;4773007;30;19925;-73
2021/11/04 12:47:07;;;;;;;4.90;3.58;;;16.90;63.40;;;;;;4773062;30;20058;-74
2021/11/04 12:49:35;;;;;;;5.80;3.42;;;16.90;63.70;;;;;;4772808;30;20071;-72
2021/11/04 12:52:04;;;;;;;5.68;3.78;;;16.80;63.80;;;;;;4772702;30;20456;-73
2021/11/04 12:54:34;;;;;;;4.70;3.50;;;16.80;64.10;;;;;;4769701;30;20138;-73
2021/11/04 12:57:05;;;;;;;5.25;3.20;;;16.80;64.20;;;;;;4772858;30;20529;-73
2021/11/04 12:59:43;;;;;;;5.55;2.80;;;16.80;64.40;;;;;;4772834;30;20063;-72
2021/11/04 13:02:25;;;;;;;4.95;3.22;;;16.80;64.50;;;;;;4769689;30;20380;-71
2021/11/04 13:04:55;;;;;;;4.05;3.40;;;16.80;64.60;;;;;;4773162;30;20056;-72
2021/11/04 13:07:25;;;;;;;5.93;3.10;;;16.80;64.90;;;;;;4757253;30;20099;-71
2021/11/04 13:10:03;;;;;;;4.18;2.60;;;16.80;65.00;;;;;;4772918;30;20062;-72
2021/11/04 13:12:44;;;;;;;3.70;2.13;;;16.80;65.00;;;;;;4772711;30;20219;-71
2021/11/04 13:15:15;;;;;;;7.75;2.22;;;16.80;64.90;;;;;;4757071;30;20095;-73
2021/11/04 13:17:46;;;;;;;3.42;2.53;;;16.70;65.00;;;;;;4772938;30;20056;-71
2021/11/04 13:20:33;;;;;;;2.40;2.00;;;16.70;65.10;;;;;;4757462;30;20365;-73
2021/11/04 13:23:15;;;;;;;3.10;2.20;;;16.70;65.10;;;;;;4772989;30;20059;-71
2021/11/04 13:25:46;;;;;;;3.35;2.05;;;16.70;65.20;;;;;;4772680;30;20060;-71
2021/11/04 13:28:19;;;;;;;3.47;2.30;;;16.70;65.40;;;;;;4757636;30;20352;-71
2021/11/04 13:30:49;;;;;;;3.72;2.00;;;16.70;65.40;;;;;;4772188;30;20102;-71
2021/11/04 13:33:16;;;;;;;3.15;2.15;;;16.70;65.70;;;;;;4772601;30;20051;-72
2021/11/04 13:35:44;;;;;;;3.00;1.90;;;16.70;65.80;;;;;;4771934;30;20430;-71
2021/11/04 13:38:22;;;;;;;2.15;1.58;;;16.70;65.80;;;;;;4756605;30;20063;-71
2021/11/04 13:41:05;;;;;;;3.25;2.20;;;16.70;65.70;;;;;;4772228;30;20118;-71
2021/11/04 13:43:35;;;;;;;6.70;2.10;;;16.70;65.70;;;;;;4772496;30;20138;-71
2021/11/04 13:46:06;;;;;;;2.47;1.52;;;16.60;65.90;;;;;;4772474;30;20088;-71
2021/11/04 13:48:36;;;;;;;2.72;1.48;;;16.60;66.00;;;;;;4776002;30;20086;-72
2021/11/04 13:51:02;;;;;;;3.72;1.95;;;16.60;66.00;;;;;;4787820;30;20127;-71
2021/11/04 13:53:35;;;;;;;3.65;1.65;;;16.60;65.90;;;;;;4756799;30;20411;-71
2021/11/04 13:56:12;;;;;;;2.10;1.55;;;16.60;65.90;;;;;;4772555;30;20059;-72
2021/11/04 13:58:43;;;;;;;2.70;1.38;;;16.60;65.90;;;;;;4757182;30;20552;-71
2021/11/04 14:01:09;;;;;;;2.70;1.42;;;16.60;66.00;;;;;;4774209;30;20078;-70
2021/11/04 14:03:36;;;;;;;3.05;2.03;;;16.60;66.20;;;;;;4760741;30;20081;-71
2021/11/04 14:06:02;;;;;;;3.28;1.70;;;16.60;66.30;;;;;;4772000;30;20064;-71
2021/11/04 14:08:44;;;;;;;5.95;1.60;;;16.60;66.30;;;;;;4756512;30;20456;-71
2021/11/04 14:11:26;;;;;;;2.90;2.20;;;16.60;66.20;;;;;;4772699;30;20063;-72
2021/11/04 14:14:00;;;;;;;11.52;6.32;;;16.60;66.40;;;;;;4785594;30;20062;-73
2021/11/04 14:16:29;;;;;;;10.13;6.78;;;16.60;65.60;;;;;;4789614;30;20132;-76
2021/11/04 14:18:57;;;;;;;10.57;6.50;;;16.60;65.10;;;;;;4789848;30;20055;-76
2021/11/04 14:21:26;;;;;;;10.35;6.70;;;16.60;64.60;;;;;;4790091;30;20057;-73
2021/11/04 14:23:54;;;;;;;11.48;6.47;;;16.60;64.30;;;;;;4759827;30;20056;-75
2021/11/04 14:26:20;;;;;;;10.73;6.38;;;16.60;64.10;;;;;;4756279;30;20119;-73
2021/11/04 14:28:47;;;;;;;9.25;5.50;;;16.60;64.30;;;;;;4771691;30;20063;-76
2021/11/04 14:31:16;;;;;;;11.38;4.72;;;16.60;64.80;;;;;;4771753;30;20110;-73
2021/11/04 14:33:41;;;;;;;6.28;4.00;;;16.60;64.80;;;;;;4784500;30;20055;-75
2021/11/04 14:36:07;;;;;;;5.93;3.88;;;16.60;64.90;;;;;;4790124;30;20069;-72
2021/11/04 14:38:33;;;;;;;6.13;3.60;;;16.70;65.10;;;;;;4789749;30;20112;-75
2021/11/04 14:40:58;;;;;;;4.65;3.15;;;16.80;65.20;;;;;;4789879;30;20353;-74
2021/11/04 14:43:27;;;;;;;6.35;2.70;;;16.80;65.20;;;;;;4779456;30;20052;-75
2021/11/04 14:45:54;;;;;;;5.57;2.70;;;16.90;65.40;;;;;;4772070;30;20051;-75
2021/11/04 14:48:20;;;;;;;8.73;2.35;;;16.90;65.50;;;;;;4759954;30;20074;-75
2021/11/04 14:50:46;;;;;;;7.97;2.30;;;17.00;65.60;;;;;;4775291;30;20147;-74
2021/11/04 14:53:12;;;;;;;3.38;2.10;;;17.00;65.70;;;;;;4774572;30;20206;-74
2021/11/04 14:55:39;;;;;;;3.35;1.70;;;17.00;65.80;;;;;;4775130;30;20052;-74
2021/11/04 14:58:05;;;;;;;4.50;2.13;;;17.00;65.90;;;;;;4774869;30;20055;-74
2021/11/04 15:00:31;;;;;;;6.22;2.10;;;17.00;66.00;;;;;;4774973;30;20052;-75
2021/11/04 15:02:57;;;;;;;4.30;1.85;;;17.10;66.10;;;;;;4774698;30;20051;-74
2021/11/04 15:05:23;;;;;;;7.72;1.83;;;17.10;66.20;;;;;;4775226;30;20066;-73
2021/11/04 15:07:49;;;;;;;6.75;1.92;;;17.10;66.20;;;;;;4775046;30;20052;-74
2021/11/04 15:10:15;;;;;;;4.45;1.55;;;17.10;66.30;;;;;;4774716;30;20544;-75
2021/11/04 15:12:41;;;;;;;5.63;2.00;;;17.10;66.40;;;;;;4773831;30;20058;-73
2021/11/04 15:15:07;;;;;;;6.97;1.48;;;17.20;66.50;;;;;;4774164;30;20056;-74
2021/11/04 15:17:34;;;;;;;10.05;1.77;;;17.20;66.50;;;;;;4774364;30;20055;-74
2021/11/04 15:20:00;;;;;;;8.43;2.60;;;17.30;66.40;;;;;;4774597;30;20055;-75
2021/11/04 15:22:26;;;;;;;7.72;2.55;;;17.40;65.90;;;;;;4774988;30;20083;-74
2021/11/04 15:24:53;;;;;;;6.70;2.60;;;17.40;65.30;;;;;;4774296;30;20459;-74
2021/11/04 15:27:18;;;;;;;7.30;2.63;;;17.50;65.10;;;;;;4758929;30;20055;-71
2021/11/04 15:29:45;;;;;;;4.43;1.73;;;17.30;64.10;;;;;;4775082;30;20047;-72
2021/11/04 15:32:11;;;;;;;9.70;1.95;;;17.40;65.10;;;;;;4774539;30;20087;-72
2021/11/04 15:34:38;;;;;;;5.10;2.30;;;17.60;65.10;;;;;;4774402;30;20091;-73
2021/11/04 15:37:04;;;;;;;6.35;1.63;;;17.80;64.30;;;;;;4773865;30;20131;-73
2021/11/04 15:39:31;;;;;;;5.22;1.15;;;17.80;64.60;;;;;;4759132;30;20129;-72
2021/11/04 15:41:58;;;;;;;13.70;2.50;;;17.90;64.50;;;;;;4771659;30;20056;-73
2021/11/04 15:44:24;;;;;;;6.40;2.63;;;17.90;64.50;;;;;;4773596;30;20095;-73
2021/11/04 15:46:50;;;;;;;6.05;3.33;;;17.90;64.00;;;;;;4773238;30;20094;-70
2021/11/04 15:49:16;;;;;;;7.40;3.10;;;17.90;63.30;;;;;;4773900;30;20134;-71
2021/11/04 15:51:42;;;;;;;6.65;2.60;;;18.00;63.20;;;;;;4773955;30;20051;-71
2021/11/04 15:54:08;;;;;;;8.70;2.20;;;17.90;63.20;;;;;;4773757;30;20478;-72
2021/11/04 15:56:34;;;;;;;5.90;2.30;;;17.90;63.30;;;;;;4774036;30;20055;-73
2021/11/04 15:59:00;;;;;;;4.78;2.35;;;17.90;63.50;;;;;;4757800;30;20070;-72
2021/11/04 16:01:25;;;;;;;5.60;1.85;;;17.80;63.60;;;;;;4774790;30;20353;-73
2021/11/04 16:03:52;;;;;;;6.47;1.77;;;17.80;63.60;;;;;;4773545;30;20498;-74
2021/11/04 16:06:51;;;;;;;4.80;1.80;;;17.90;63.80;;;;;;4773944;30;20059;-73
2021/11/04 16:09:19;;;;;;;5.88;1.40;;;17.90;63.70;;;;;;4754020;30;20078;-72
2021/11/04 16:11:45;;;;;;;6.40;1.88;;;17.80;64.10;;;;;;4774251;30;20094;-75
2021/11/04 16:14:12;;;;;;;3.97;1.73;;;17.80;64.30;;;;;;4771795;30;20083;-75
2021/11/04 16:16:38;;;;;;;7.07;2.28;;;17.80;64.60;;;;;;4773612;30;20383;-72
2021/11/04 16:19:04;;;;;;;4.38;2.30;;;17.80;64.70;;;;;;4772307;30;20056;-73
2021/11/04 16:21:31;;;;;;;6.20;2.55;;;17.80;65.00;;;;;;4760643;30;20142;-72
2021/11/04 16:24:01;;;;;;;7.30;4.63;;;17.80;65.10;;;;;;4773151;30;20055;-73
2021/11/04 16:26:27;;;;;;;7.95;5.82;;;17.70;66.60;;;;;;4773496;30;20066;-73
2021/11/04 16:28:53;;;;;;;5.35;3.92;;;17.70;69.20;;;;;;4774196;30;20130;-72
2021/11/04 16:31:19;;;;;;;6.13;3.85;;;17.70;68.80;;;;;;4773360;30;20070;-72
2021/11/04 16:33:45;;;;;;;8.02;3.75;;;17.70;67.70;;;;;;4772679;30;20471;-72
2021/11/04 16:36:12;;;;;;;6.00;3.53;;;17.70;67.40;;;;;;4773654;30;20122;-74
2021/11/04 16:38:37;;;;;;;9.77;3.40;;;17.70;67.10;;;;;;4773419;30;20062;-73
2021/11/04 16:41:04;;;;;;;7.03;3.45;;;17.70;67.30;;;;;;4757506;30;20056;-73
2021/11/04 16:43:31;;;;;;;7.35;3.30;;;17.80;67.50;;;;;;4773072;30;20055;-72
2021/11/04 16:45:57;;;;;;;9.98;3.10;;;17.70;67.80;;;;;;4773159;30;20054;-73
2021/11/04 16:48:23;;;;;;;7.20;2.65;;;17.70;68.30;;;;;;4760896;30;20051;-73
2021/11/04 16:50:49;;;;;;;7.63;2.63;;;17.70;68.50;;;;;;4790938;30;20170;-75
2021/11/04 16:53:15;;;;;;;7.43;2.75;;;17.70;68.60;;;;;;4771468;30;20061;-74
2021/11/04 16:55:41;;;;;;;9.23;2.53;;;17.70;69.00;;;;;;4790878;30;20062;-75
2021/11/04 16:58:08;;;;;;;6.35;2.53;;;17.60;69.20;;;;;;4790960;30;20379;-76
2021/11/04 17:00:34;;;;;;;8.38;3.17;;;17.60;69.10;;;;;;4790303;30;20051;-74
2021/11/04 17:03:00;;;;;;;7.43;2.97;;;17.60;68.80;;;;;;4790229;30;20099;-75
2021/11/04 17:05:26;;;;;;;5.90;2.45;;;17.50;68.50;;;;;;4774862;30;20085;-75
2021/11/04 17:07:52;;;;;;;7.68;2.75;;;17.50;68.70;;;;;;4791009;30;20116;-75
2021/11/04 17:10:18;;;;;;;8.98;3.17;;;17.50;68.70;;;;;;4790601;29;20429;-75
2021/11/04 17:12:44;;;;;;;11.13;2.60;;;17.40;68.90;;;;;;4789801;30;20097;-76
2021/11/04 17:15:11;;;;;;;6.03;2.53;;;17.40;68.80;;;;;;4791269;30;20059;-74
2021/11/04 17:17:37;;;;;;;9.93;2.60;;;17.40;68.90;;;;;;4790195;30;20059;-75
2021/11/04 17:20:05;;;;;;;10.20;2.45;;;17.40;68.90;;;;;;4790396;30;20047;-78
2021/11/04 17:22:35;;;;;;;8.80;2.45;;;17.40;69.10;;;;;;4789217;30;20197;-76
2021/11/04 17:25:01;;;;;;;8.93;2.78;;;17.40;69.10;;;;;;4774377;30;20134;-76
2021/11/04 17:27:27;;;;;;;6.93;2.17;;;17.40;69.20;;;;;;4774909;30;20130;-76
2021/11/04 17:29:53;;;;;;;8.50;2.33;;;17.30;67.80;;;;;;4790416;30;20051;-76
2021/11/04 17:32:22;;;;;;;7.85;2.20;;;16.90;67.60;;;;;;4774859;30;20062;-76
2021/11/04 17:34:48;;;;;;;7.50;1.85;;;17.00;69.30;;;;;;4775178;30;20051;-75
2021/11/04 17:37:14;;;;;;;11.05;2.53;;;17.00;69.50;;;;;;4790413;30;20066;-75
2021/11/04 17:39:40;;;;;;;8.30;1.75;;;17.00;68.80;;;;;;4790496;30;20067;-75
2021/11/04 17:42:06;;;;;;;8.77;2.30;;;17.00;69.30;;;;;;4788784;30;20043;-81
2021/11/04 17:44:31;;;;;;;9.23;2.28;;;17.00;69.30;;;;;;4793954;29;20144;-73
2021/11/04 17:46:57;;;;;;;6.15;2.22;;;17.10;69.40;;;;;;4808230;29;20063;-76
2021/11/04 17:49:24;;;;;;;10.75;2.45;;;17.10;70.10;;;;;;4783500;29;20063;-76
2021/11/04 17:51:51;;;;;;;11.98;2.25;;;17.10;70.40;;;;;;4756205;30;20064;-76
2021/11/04 17:54:18;;;;;;;8.75;1.88;;;17.10;71.00;;;;;;4772404;30;20183;-73
2021/11/04 17:56:45;;;;;;;7.65;2.10;;;17.20;71.20;;;;;;4772288;30;20044;-76
2021/11/04 17:59:11;;;;;;;8.25;1.92;;;17.00;69.20;;;;;;4771672;30;20048;-77
2021/11/04 18:01:40;;;;;;;6.40;1.73;;;17.10;70.80;;;;;;4767462;30;20130;-76
2021/11/04 18:04:06;;;;;;;4.30;1.65;;;17.00;70.90;;;;;;4774181;30;20059;-75
2021/11/04 18:06:34;;;;;;;7.05;2.00;;;17.10;71.40;;;;;;4789847;30;20043;-75
2021/11/04 18:09:02;;;;;;;8.40;1.77;;;17.10;71.90;;;;;;4790000;30;20459;-76
2021/11/04 18:11:28;;;;;;;6.53;1.83;;;17.10;72.10;;;;;;4789897;30;20074;-75
2021/11/04 18:13:54;;;;;;;6.43;1.98;;;17.10;72.10;;;;;;4759672;30;20121;-75
2021/11/04 18:16:21;;;;;;;5.78;1.38;;;17.10;71.70;;;;;;4789685;30;20514;-75
2021/11/04 18:18:47;;;;;;;5.07;1.55;;;17.10;71.60;;;;;;4774366;30;20340;-77
2021/11/04 18:21:14;;;;;;;3.22;1.48;;;17.10;71.50;;;;;;4775160;30;20481;-77
2021/11/04 18:23:40;;;;;;;4.38;1.50;;;17.10;71.40;;;;;;4777990;30;20486;-78
2021/11/04 18:26:06;;;;;;;3.72;1.33;;;17.20;71.30;;;;;;4760570;30;20090;-77
2021/11/04 18:28:32;;;;;;;9.65;1.70;;;17.10;71.10;;;;;;4775938;30;20056;-76
2021/11/04 18:30:58;;;;;;;6.53;1.67;;;17.10;71.10;;;;;;4775810;30;20095;-76
2021/11/04 18:33:24;;;;;;;3.47;1.40;;;17.10;71.00;;;;;;4775514;30;20278;-77
2021/11/04 18:35:50;;;;;;;5.93;1.63;;;17.10;70.90;;;;;;4769963;30;20051;-76
2021/11/04 18:38:17;;;;;;;4.35;1.20;;;17.10;70.90;;;;;;4775675;30;20461;-76
2021/11/04 18:40:44;;;;;;;4.45;1.20;;;17.10;70.90;;;;;;4775530;30;20472;-76
2021/11/04 18:43:10;;;;;;;3.80;1.60;;;17.10;70.70;;;;;;4775209;30;20165;-75
2021/11/04 18:45:37;;;;;;;8.15;1.58;;;17.10;70.70;;;;;;4774548;30;20059;-78
2021/11/04 18:48:03;;;;;;;5.00;1.58;;;17.00;70.20;;;;;;4759411;30;20438;-77
2021/11/04 18:50:29;;;;;;;5.60;1.45;;;16.80;70.10;;;;;;4793162;30;20134;-77
2021/11/04 18:52:55;;;;;;;6.22;1.33;;;16.60;69.80;;;;;;4793193;30;20260;-77
2021/11/04 18:55:21;;;;;;;4.30;1.30;;;16.50;70.50;;;;;;4783349;30;20472;-81
2021/11/04 18:57:48;;;;;;;4.00;1.10;;;16.40;70.60;;;;;;4770637;30;20047;-76
2021/11/04 19:00:16;;;;;;;2.72;1.27;;;16.30;70.60;;;;;;4792961;30;20116;-76
2021/11/04 19:02:42;;;;;;;3.22;1.20;;;16.20;70.70;;;;;;4792625;30;20051;-76
2021/11/04 19:05:08;;;;;;;5.65;1.33;;;16.20;70.90;;;;;;4792903;30;20051;-76
2021/11/04 19:07:34;;;;;;;7.57;1.42;;;16.00;70.90;;;;;;4793128;30;20051;-77
2021/11/04 19:10:01;;;;;;;4.00;1.15;;;15.90;71.10;;;;;;4793488;30;20138;-77
2021/11/04 19:12:27;;;;;;;4.05;1.45;;;15.80;71.30;;;;;;4793350;30;20348;-75
2021/11/04 19:14:54;;;;;;;5.28;1.58;;;15.80;71.50;;;;;;4792600;30;20050;-76
2021/11/04 19:17:21;;;;;;;3.00;0.90;;;15.70;71.70;;;;;;4777073;30;20444;-78
2021/11/04 19:19:46;;;;;;;4.82;1.50;;;15.70;71.90;;;;;;4792513;30;20444;-77
2021/11/04 19:22:12;;;;;;;3.30;1.05;;;15.60;72.20;;;;;;4792866;30;20062;-76
2021/11/04 19:24:38;;;;;;;4.07;0.98;;;15.50;72.50;;;;;;4777006;30;20062;-76
2021/11/04 19:27:04;;;;;;;4.75;1.13;;;15.50;72.50;;;;;;4792170;30;20122;-77
2021/11/04 19:29:29;;;;;;;3.60;1.10;;;15.50;72.50;;;;;;4792447;30;20090;-76
2021/11/04 19:31:55;;;;;;;2.85;0.80;;;15.40;72.60;;;;;;4792181;30;20050;-77
2021/11/04 19:34:22;;;;;;;4.25;1.20;;;15.40;72.70;;;;;;4791412;30;20098;-75
2021/11/04 19:36:49;;;;;;;2.63;0.93;;;15.40;72.80;;;;;;4792513;30;20364;-76
2021/11/04 19:39:15;;;;;;;2.30;0.95;;;15.40;72.70;;;;;;4792232;30;20063;-76
2021/11/04 19:41:44;;;;;;;3.47;1.30;;;15.40;72.80;;;;;;4791803;30;20408;-75